createdAt,value
2018-03-15T00:00:21.386Z,13.20
2018-03-15T00:01:21.381Z,13.10
2018-03-15T00:02:21.375Z,13.90
2018-03-15T00:03:21.368Z,14.20
2018-03-15T00:04:21.364Z,14.10
2018-03-15T00:05:21.359Z,14.60
2018-03-15T00:06:21.351Z,15.70
2018-03-15T00:07:21.345Z,13.50
2018-03-15T00:08:21.345Z,13.00
2018-03-15T00:09:21.335Z,13.40
2018-03-15T00:10:21.330Z,14.20
2018-03-15T00:11:21.321Z,13.60
2018-03-15T00:12:21.315Z,12.70
2018-03-15T00:13:21.310Z,12.10
2018-03-15T00:14:21.305Z,12.90
2018-03-15T00:15:21.297Z,14.40
2018-03-15T00:16:21.293Z,15.90
2018-03-15T00:17:21.287Z,15.20
2018-03-15T00:18:21.280Z,13.40
2018-03-15T00:19:21.275Z,14.90
2018-03-15T00:20:21.269Z,17.70
2018-03-15T00:21:21.263Z,14.80
2018-03-15T00:22:21.256Z,14.70
2018-03-15T00:23:21.252Z,15.30
2018-03-15T00:24:21.244Z,16.90
2018-03-15T00:25:21.239Z,14.80
2018-03-15T00:26:21.232Z,15.20
2018-03-15T00:27:21.227Z,17.80
2018-03-15T00:28:21.220Z,17.50
2018-03-15T00:29:21.215Z,17.30
2018-03-15T00:30:21.209Z,18.30
2018-03-15T00:31:21.201Z,16.40
2018-03-15T00:32:21.196Z,15.80
2018-03-15T00:33:21.191Z,17.10
2018-03-15T00:34:21.185Z,17.00
2018-03-15T00:35:21.178Z,15.70
2018-03-15T00:36:21.173Z,17.00
2018-03-15T00:37:21.166Z,16.00
2018-03-15T00:38:21.159Z,15.40
2018-03-15T00:39:21.153Z,15.60
2018-03-15T00:40:21.148Z,15.70
2018-03-15T00:41:21.143Z,16.60
2018-03-15T00:42:21.134Z,18.70
2018-03-15T00:43:21.130Z,17.50
2018-03-15T00:44:21.124Z,16.40
2018-03-15T00:45:21.117Z,17.30
2018-03-15T00:46:21.110Z,17.70
2018-03-15T00:47:21.105Z,17.20
2018-03-15T00:48:21.099Z,16.60
2018-03-15T00:49:21.092Z,15.10
2018-03-15T00:50:21.091Z,17.90
2018-03-15T00:51:21.079Z,15.00
2018-03-15T00:52:21.074Z,17.60
2018-03-15T00:53:21.068Z,14.70
2018-03-15T00:54:21.060Z,13.70
2018-03-15T00:55:21.055Z,12.50
2018-03-15T00:56:21.048Z,12.70
2018-03-15T00:57:21.042Z,12.50
2018-03-15T00:58:21.036Z,14.50
2018-03-15T00:59:21.029Z,12.20
2018-03-15T01:00:21.026Z,10.80
2018-03-15T01:01:21.017Z,11.40
2018-03-15T01:02:21.010Z,9.90
2018-03-15T01:03:21.008Z,10.80
2018-03-15T01:04:20.999Z,9.80
2018-03-15T01:05:20.992Z,11.20
2018-03-15T01:06:20.985Z,9.70
2018-03-15T01:07:20.978Z,10.20
2018-03-15T01:08:20.973Z,10.20
2018-03-15T01:09:20.967Z,9.80
2018-03-15T01:10:20.964Z,9.10
2018-03-15T01:11:20.954Z,9.90
2018-03-15T01:12:20.948Z,9.50
2018-03-15T01:13:20.941Z,9.60
2018-03-15T01:14:20.934Z,10.30
2018-03-15T01:15:20.928Z,9.50
2018-03-15T01:16:20.921Z,10.60
2018-03-15T01:17:20.915Z,9.30
2018-03-15T01:18:20.910Z,10.10
2018-03-15T01:19:20.902Z,10.50
2018-03-15T01:20:20.899Z,10.30
2018-03-15T01:21:20.899Z,10.00
2018-03-15T01:22:20.882Z,10.40
2018-03-15T01:23:20.876Z,11.00
2018-03-15T01:24:20.872Z,10.00
2018-03-15T01:25:20.864Z,9.40
2018-03-15T01:26:20.855Z,9.90
2018-03-15T01:27:20.851Z,10.10
2018-03-15T01:28:20.844Z,9.80
2018-03-15T01:29:20.837Z,10.50
2018-03-15T01:30:20.831Z,9.80
2018-03-15T01:31:20.823Z,9.20
2018-03-15T01:32:20.819Z,9.70
2018-03-15T01:33:20.810Z,9.40
2018-03-15T01:34:20.804Z,9.50
2018-03-15T01:35:20.799Z,8.90
2018-03-15T01:36:20.790Z,8.10
2018-03-15T01:37:20.783Z,9.30
2018-03-15T01:38:20.827Z,7.90
2018-03-15T01:39:20.770Z,8.50
2018-03-15T01:40:20.767Z,7.40
2018-03-15T01:41:20.756Z,5.50
2018-03-15T01:42:20.749Z,5.20
2018-03-15T01:43:20.743Z,5.20
2018-03-15T01:44:20.737Z,5.20
2018-03-15T01:45:20.731Z,3.20
2018-03-15T01:46:20.723Z,4.60
2018-03-15T01:47:20.717Z,3.70
2018-03-15T01:48:20.710Z,3.40
2018-03-15T01:49:20.703Z,4.00
2018-03-15T01:50:20.696Z,3.20
2018-03-15T01:51:20.690Z,4.40
2018-03-15T01:52:20.684Z,3.90
2018-03-15T01:53:20.680Z,4.00
2018-03-15T01:54:20.671Z,3.20
2018-03-15T01:55:20.669Z,4.20
2018-03-15T01:56:20.658Z,3.60
2018-03-15T01:57:20.652Z,3.60
2018-03-15T01:58:20.645Z,3.90
2018-03-15T01:59:20.638Z,4.10
2018-03-15T02:00:20.632Z,4.00
2018-03-15T02:01:20.629Z,2.90
2018-03-15T02:02:20.618Z,4.30
2018-03-15T02:03:20.612Z,4.50
2018-03-15T02:04:20.607Z,3.80
2018-03-15T02:05:20.600Z,3.40
2018-03-15T02:06:20.593Z,3.80
2018-03-15T02:07:20.587Z,3.80
2018-03-15T02:08:20.581Z,6.50
2018-03-15T02:09:20.575Z,4.00
2018-03-15T02:10:20.566Z,3.50
2018-03-15T02:11:20.560Z,3.80
2018-03-15T02:12:20.554Z,3.50
2018-03-15T02:13:20.547Z,3.60
2018-03-15T02:14:20.541Z,4.50
2018-03-15T02:15:20.535Z,3.80
2018-03-15T02:16:20.528Z,4.10
2018-03-15T02:17:20.522Z,3.90
2018-03-15T02:18:20.515Z,4.30
2018-03-15T02:19:20.508Z,4.20
2018-03-15T02:20:20.502Z,3.80
2018-03-15T02:21:20.495Z,4.70
2018-03-15T02:22:20.490Z,4.50
2018-03-15T02:23:20.482Z,4.30
2018-03-15T02:24:20.478Z,4.40
2018-03-15T02:25:20.470Z,4.40
2018-03-15T02:26:20.463Z,4.30
2018-03-15T02:27:20.456Z,4.40
2018-03-15T02:28:20.450Z,4.30
2018-03-15T02:29:20.442Z,4.00
2018-03-15T02:30:20.436Z,4.20
2018-03-15T02:31:20.430Z,4.50
2018-03-15T02:32:20.423Z,4.20
2018-03-15T02:33:20.417Z,4.50
2018-03-15T02:34:20.410Z,4.90
2018-03-15T02:35:20.404Z,4.40
2018-03-15T02:36:20.396Z,4.30
2018-03-15T02:37:20.391Z,5.30
2018-03-15T02:38:20.383Z,7.00
2018-03-15T02:39:20.376Z,6.90
2018-03-15T02:40:20.372Z,7.60
2018-03-15T02:41:20.364Z,7.50
2018-03-15T02:42:20.357Z,7.60
2018-03-15T02:43:20.351Z,8.50
2018-03-15T02:44:20.350Z,7.40
2018-03-15T02:45:20.338Z,8.10
2018-03-15T02:46:20.330Z,9.30
2018-03-15T02:47:20.325Z,9.00
2018-03-15T02:48:20.318Z,9.80
2018-03-15T02:49:20.311Z,9.60
2018-03-15T02:50:20.305Z,9.50
2018-03-15T02:51:20.297Z,9.30
2018-03-15T02:52:20.293Z,8.70
2018-03-15T02:53:20.286Z,9.10
2018-03-15T02:54:20.276Z,8.60
2018-03-15T02:55:20.271Z,9.50
2018-03-15T02:56:20.263Z,8.10
2018-03-15T02:57:20.256Z,8.10
2018-03-15T02:58:20.249Z,7.30
2018-03-15T02:59:20.244Z,7.80
2018-03-15T03:00:20.237Z,7.10
2018-03-15T03:01:20.230Z,7.00
2018-03-15T03:02:20.223Z,8.30
2018-03-15T03:03:20.217Z,7.70
2018-03-15T03:04:20.209Z,7.90
2018-03-15T03:05:20.203Z,7.70
2018-03-15T03:06:20.194Z,8.40
2018-03-15T03:07:20.188Z,8.60
2018-03-15T03:08:20.182Z,8.30
2018-03-15T03:09:20.174Z,7.70
2018-03-15T03:10:20.166Z,7.70
2018-03-15T03:11:20.160Z,8.00
2018-03-15T03:12:20.154Z,8.40
2018-03-15T03:13:20.148Z,7.80
2018-03-15T03:14:20.139Z,8.10
2018-03-15T03:15:20.132Z,7.60
2018-03-15T03:16:20.129Z,8.20
2018-03-15T03:17:20.122Z,9.00
2018-03-15T03:18:20.110Z,10.50
2018-03-15T03:19:20.104Z,8.50
2018-03-15T03:20:20.096Z,10.20
2018-03-15T03:21:20.090Z,10.50
2018-03-15T03:22:20.082Z,10.10
2018-03-15T03:23:20.075Z,10.10
2018-03-15T03:24:20.069Z,9.90
2018-03-15T03:25:20.062Z,9.60
2018-03-15T03:26:20.054Z,8.70
2018-03-15T03:27:20.046Z,9.90
2018-03-15T03:28:20.041Z,10.40
2018-03-15T03:29:20.034Z,9.30
2018-03-15T03:30:20.027Z,9.80
2018-03-15T03:31:20.020Z,9.70
2018-03-15T03:32:20.012Z,9.60
2018-03-15T03:33:20.004Z,8.50
2018-03-15T03:34:19.999Z,9.00
2018-03-15T03:35:19.989Z,7.80
2018-03-15T03:36:19.983Z,7.30
2018-03-15T03:37:19.977Z,7.30
2018-03-15T03:38:19.969Z,7.60
2018-03-15T03:39:19.961Z,7.70
2018-03-15T03:40:19.954Z,7.70
2018-03-15T03:41:19.947Z,7.20
2018-03-15T03:42:19.939Z,8.10
2018-03-15T03:43:19.931Z,11.80
2018-03-15T03:44:19.925Z,8.40
2018-03-15T03:45:19.918Z,7.90
2018-03-15T03:46:19.915Z,8.30
2018-03-15T03:47:19.903Z,8.40
2018-03-15T03:48:19.896Z,9.10
2018-03-15T03:49:19.893Z,9.10
2018-03-15T03:50:19.880Z,8.50
2018-03-15T03:51:19.875Z,8.20
2018-03-15T03:52:19.866Z,8.50
2018-03-15T03:53:19.862Z,9.50
2018-03-15T03:54:19.851Z,9.40
2018-03-15T03:55:19.844Z,8.00
2018-03-15T03:56:19.836Z,8.60
2018-03-15T03:57:19.830Z,8.40
2018-03-15T03:58:19.821Z,9.30
2018-03-15T03:59:19.815Z,9.80
2018-03-15T04:00:19.813Z,9.00
2018-03-15T04:01:19.801Z,9.60
2018-03-15T04:02:19.795Z,8.80
2018-03-15T04:03:19.836Z,8.70
2018-03-15T04:04:19.779Z,7.80
2018-03-15T04:05:19.771Z,7.30
2018-03-15T04:06:19.763Z,7.70
2018-03-15T04:07:19.756Z,7.10
2018-03-15T04:08:19.748Z,8.00
2018-03-15T04:09:19.742Z,6.80
2018-03-15T04:10:19.734Z,8.20
2018-03-15T04:11:19.727Z,8.00
2018-03-15T04:12:19.719Z,9.30
2018-03-15T04:13:19.712Z,19.00
2018-03-15T04:14:19.704Z,23.00
2018-03-15T04:15:19.698Z,35.40
2018-03-15T04:16:19.690Z,47.00
2018-03-15T04:17:19.683Z,62.70
2018-03-15T04:18:19.674Z,56.90
2018-03-15T04:19:19.667Z,37.30
2018-03-15T04:20:19.659Z,38.50
2018-03-15T04:21:19.652Z,43.70
2018-03-15T04:22:19.647Z,29.70
2018-03-15T04:23:19.638Z,21.40
2018-03-15T04:24:19.631Z,35.30
2018-03-15T04:25:19.621Z,31.30
2018-03-15T04:26:19.614Z,26.60
2018-03-15T04:27:19.607Z,31.00
2018-03-15T04:28:19.606Z,78.90
2018-03-15T04:29:19.592Z,110.30
2018-03-15T04:30:19.584Z,106.00
2018-03-15T04:31:19.577Z,126.70
2018-03-15T04:32:19.570Z,65.30
2018-03-15T04:33:19.561Z,70.20
2018-03-15T04:34:19.554Z,60.80
2018-03-15T04:35:19.546Z,95.10
2018-03-15T04:36:19.539Z,105.90
2018-03-15T04:37:19.531Z,111.80
2018-03-15T04:38:19.528Z,138.40
2018-03-15T04:39:19.515Z,80.80
2018-03-15T04:40:19.508Z,53.20
2018-03-15T04:41:19.500Z,86.90
2018-03-15T04:42:19.493Z,104.30
2018-03-15T04:43:19.484Z,194.50
2018-03-15T04:44:19.477Z,227.10
2018-03-15T04:45:19.470Z,236.70
2018-03-15T04:46:19.462Z,227.70
2018-03-15T04:47:19.452Z,211.90
2018-03-15T04:48:19.446Z,136.50
2018-03-15T04:49:19.439Z,209.30
2018-03-15T04:50:19.431Z,117.00
2018-03-15T04:51:19.423Z,142.80
2018-03-15T04:52:19.415Z,131.00
2018-03-15T04:53:19.408Z,113.10
2018-03-15T04:54:19.401Z,71.20
2018-03-15T04:55:19.392Z,106.10
2018-03-15T04:56:19.385Z,96.60
2018-03-15T04:57:19.378Z,76.50
2018-03-15T04:58:19.369Z,125.00
2018-03-15T04:59:19.362Z,105.90
2018-03-15T05:00:19.354Z,79.70
2018-03-15T05:01:19.346Z,95.80
2018-03-15T05:02:19.340Z,138.90
2018-03-15T05:03:19.331Z,118.80
2018-03-15T05:04:19.323Z,92.40
2018-03-15T05:05:19.316Z,80.10
2018-03-15T05:06:19.307Z,82.80
2018-03-15T05:07:19.299Z,44.00
2018-03-15T05:08:19.291Z,39.30
2018-03-15T05:09:19.285Z,67.90
2018-03-15T05:10:19.276Z,86.20
2018-03-15T05:11:19.268Z,112.20
2018-03-15T05:12:19.260Z,99.70
2018-03-15T05:13:19.254Z,76.50
2018-03-15T05:14:19.245Z,55.90
2018-03-15T05:15:19.238Z,73.40
2018-03-15T05:16:19.230Z,83.40
2018-03-15T05:17:19.222Z,59.50
2018-03-15T05:18:19.213Z,66.80
2018-03-15T05:19:19.205Z,137.20
2018-03-15T05:20:19.199Z,110.90
2018-03-15T05:21:19.192Z,83.70
2018-03-15T05:22:19.187Z,125.70
2018-03-15T05:23:19.176Z,103.80
2018-03-15T05:24:19.168Z,92.30
2018-03-15T05:25:19.160Z,125.80
2018-03-15T05:26:19.153Z,153.40
2018-03-15T05:27:19.147Z,87.70
2018-03-15T05:28:19.139Z,83.90
2018-03-15T05:29:19.133Z,104.00
2018-03-15T05:30:19.123Z,122.40
2018-03-15T05:31:19.113Z,106.70
2018-03-15T05:32:19.106Z,64.80
2018-03-15T05:33:19.099Z,77.80
2018-03-15T05:34:19.091Z,75.80
2018-03-15T05:35:19.083Z,99.20
2018-03-15T05:36:19.075Z,54.60
2018-03-15T05:37:19.073Z,31.20
2018-03-15T05:38:19.060Z,22.30
2018-03-15T05:39:19.052Z,30.50
2018-03-15T05:40:19.045Z,26.00
2018-03-15T05:41:19.038Z,38.70
2018-03-15T05:42:19.029Z,33.60
2018-03-15T05:43:19.021Z,39.30
2018-03-15T05:44:19.014Z,68.90
2018-03-15T05:45:19.007Z,92.50
2018-03-15T05:46:18.999Z,79.90
2018-03-15T05:47:18.991Z,75.00
2018-03-15T05:48:18.984Z,74.20
2018-03-15T05:49:18.976Z,55.40
2018-03-15T05:50:18.968Z,37.20
2018-03-15T05:51:18.960Z,48.30
2018-03-15T05:52:18.953Z,41.00
2018-03-15T05:53:18.955Z,31.60
2018-03-15T05:54:18.936Z,24.50
2018-03-15T05:55:18.928Z,17.60
2018-03-15T05:56:18.922Z,30.90
2018-03-15T05:57:18.914Z,14.30
2018-03-15T05:58:18.906Z,9.30
2018-03-15T05:59:18.898Z,13.80
2018-03-15T06:00:18.892Z,10.20
2018-03-15T06:01:18.888Z,8.70
2018-03-15T06:02:18.876Z,9.20
2018-03-15T06:03:18.869Z,8.40
2018-03-15T06:04:18.861Z,7.80
2018-03-15T06:05:18.854Z,8.10
2018-03-15T06:06:18.847Z,7.80
2018-03-15T06:07:18.839Z,8.90
2018-03-15T06:08:18.833Z,8.00
2018-03-15T06:09:18.827Z,7.10
2018-03-15T06:10:18.818Z,9.10
2018-03-15T06:11:18.811Z,7.90
2018-03-15T06:12:18.805Z,12.60
2018-03-15T06:13:18.805Z,6.70
2018-03-15T06:14:18.847Z,6.80
2018-03-15T06:15:18.788Z,8.40
2018-03-15T06:16:18.781Z,7.80
2018-03-15T06:17:18.777Z,7.20
2018-03-15T06:18:18.771Z,13.80
2018-03-15T06:19:18.814Z,14.50
2018-03-15T06:20:18.762Z,11.30
2018-03-15T06:21:18.756Z,13.50
2018-03-15T06:22:18.752Z,9.90
2018-03-15T06:23:18.746Z,9.10
2018-03-15T06:24:18.741Z,9.00
2018-03-15T06:25:18.737Z,7.60
2018-03-15T06:26:18.731Z,9.70
2018-03-15T06:27:18.726Z,9.90
2018-03-15T06:28:18.721Z,10.60
2018-03-15T06:29:18.717Z,13.00
2018-03-15T06:30:18.711Z,10.70
2018-03-15T06:31:18.706Z,11.10
2018-03-15T06:32:18.703Z,9.30
2018-03-15T06:33:18.696Z,8.60
2018-03-15T06:34:18.690Z,8.60
2018-03-15T06:35:18.685Z,9.10
2018-03-15T06:36:18.681Z,7.90
2018-03-15T06:37:18.675Z,8.50
2018-03-15T06:38:18.669Z,9.70
2018-03-15T06:39:18.664Z,9.30
2018-03-15T06:40:18.659Z,9.70
2018-03-15T06:41:18.654Z,10.10
2018-03-15T06:42:18.648Z,11.30
2018-03-15T06:43:18.643Z,12.20
2018-03-15T06:44:18.638Z,14.10
2018-03-15T06:45:18.634Z,12.30
2018-03-15T06:46:18.628Z,12.10
2018-03-15T06:47:18.621Z,11.70
2018-03-15T06:48:18.615Z,11.30
2018-03-15T06:49:18.609Z,15.30
2018-03-15T06:50:18.603Z,10.60
2018-03-15T06:51:18.597Z,10.60
2018-03-15T06:52:18.591Z,10.70
2018-03-15T06:53:18.587Z,11.40
2018-03-15T06:54:18.580Z,14.30
2018-03-15T06:55:18.579Z,12.80
2018-03-15T06:56:18.569Z,16.80
2018-03-15T06:57:18.563Z,13.00
2018-03-15T06:58:18.559Z,12.90
2018-03-15T06:59:18.550Z,11.00
2018-03-15T07:00:18.547Z,10.20
2018-03-15T07:01:18.541Z,9.50
2018-03-15T07:02:18.535Z,10.10
2018-03-15T07:03:18.530Z,9.50
2018-03-15T07:04:18.525Z,10.00
2018-03-15T07:05:18.520Z,10.20
2018-03-15T07:06:18.516Z,9.40
2018-03-15T07:07:18.509Z,10.40
2018-03-15T07:08:18.509Z,9.80
2018-03-15T07:09:18.500Z,11.60
2018-03-15T07:10:18.492Z,12.10
2018-03-15T07:11:18.770Z,11.40
2018-03-15T07:12:18.483Z,17.20
2018-03-15T07:13:18.478Z,12.40
2018-03-15T07:14:18.472Z,13.40
2018-03-15T07:15:18.467Z,12.80
2018-03-15T07:16:18.465Z,11.60
2018-03-15T07:17:18.457Z,10.90
2018-03-15T07:18:18.453Z,10.00
2018-03-15T07:19:18.449Z,9.40
2018-03-15T07:20:18.444Z,9.50
2018-03-15T07:21:18.441Z,10.00
2018-03-15T07:22:18.436Z,9.50
2018-03-15T07:23:18.430Z,10.00
2018-03-15T07:24:18.427Z,9.20
2018-03-15T07:25:18.422Z,9.60
2018-03-15T07:26:18.417Z,9.50
2018-03-15T07:27:18.663Z,9.20
2018-03-15T07:28:18.412Z,10.00
2018-03-15T07:29:18.404Z,10.20
2018-03-15T07:30:18.401Z,8.80
2018-03-15T07:31:18.397Z,9.90
2018-03-15T07:32:18.392Z,9.00
2018-03-15T07:33:18.388Z,9.20
2018-03-15T07:34:18.388Z,10.10
2018-03-15T07:35:18.379Z,10.10
2018-03-15T07:36:18.374Z,12.20
2018-03-15T07:37:18.370Z,10.60
2018-03-15T07:38:18.365Z,9.40
2018-03-15T07:39:18.425Z,10.80
2018-03-15T07:40:18.358Z,10.10
2018-03-15T07:41:18.388Z,9.80
2018-03-15T07:42:18.348Z,9.60
2018-03-15T07:43:18.343Z,10.20
2018-03-15T07:44:18.339Z,9.50
2018-03-15T07:45:18.335Z,8.80
2018-03-15T07:46:18.330Z,9.80
2018-03-15T07:47:18.326Z,9.10
2018-03-15T07:48:18.322Z,9.50
2018-03-15T07:49:18.319Z,9.60
2018-03-15T07:50:18.312Z,10.40
2018-03-15T07:51:18.308Z,12.00
2018-03-15T07:52:18.303Z,11.80
2018-03-15T07:53:18.298Z,11.40
2018-03-15T07:54:18.294Z,11.90
2018-03-15T07:55:18.290Z,10.90
2018-03-15T07:56:18.288Z,9.10
2018-03-15T07:57:18.282Z,11.80
2018-03-15T07:58:18.279Z,11.20
2018-03-15T07:59:18.272Z,10.80
2018-03-15T08:00:18.267Z,12.00
2018-03-15T08:01:18.263Z,11.00
2018-03-15T08:02:18.259Z,11.00
2018-03-15T08:03:18.254Z,11.50
2018-03-15T08:04:18.249Z,10.50
2018-03-15T08:05:18.244Z,10.80
2018-03-15T08:06:18.240Z,10.60
2018-03-15T08:07:18.255Z,10.70
2018-03-15T08:08:18.231Z,11.70
2018-03-15T08:09:18.231Z,11.40
2018-03-15T08:10:18.222Z,11.00
2018-03-15T08:11:18.218Z,11.00
2018-03-15T08:12:18.213Z,11.90
2018-03-15T08:13:18.208Z,11.90
2018-03-15T08:14:18.206Z,11.60
2018-03-15T08:15:18.199Z,12.80
2018-03-15T08:16:18.196Z,12.90
2018-03-15T08:17:18.192Z,12.60
2018-03-15T08:18:18.187Z,12.20
2018-03-15T08:19:18.182Z,11.90
2018-03-15T08:20:18.178Z,12.10
2018-03-15T08:21:18.176Z,12.10
2018-03-15T08:22:18.169Z,11.30
2018-03-15T08:23:18.164Z,11.80
2018-03-15T08:24:18.191Z,11.00
2018-03-15T08:25:18.156Z,10.50
2018-03-15T08:26:18.151Z,11.30
2018-03-15T08:27:18.148Z,12.00
2018-03-15T08:28:18.149Z,12.60
2018-03-15T08:29:18.139Z,11.10
2018-03-15T08:30:18.142Z,12.50
2018-03-15T08:31:18.131Z,12.20
2018-03-15T08:32:18.152Z,12.50
2018-03-15T08:33:18.124Z,13.00
2018-03-15T08:34:18.118Z,12.50
2018-03-15T08:35:18.114Z,11.90
2018-03-15T08:36:18.110Z,12.60
2018-03-15T08:37:18.112Z,12.20
2018-03-15T08:38:18.102Z,13.10
2018-03-15T08:39:18.098Z,13.40
2018-03-15T08:40:18.095Z,13.00
2018-03-15T08:41:18.091Z,12.60
2018-03-15T08:42:18.087Z,12.80
2018-03-15T08:43:18.083Z,13.50
2018-03-15T08:44:18.080Z,13.90
2018-03-15T08:45:18.076Z,11.80
2018-03-15T08:46:18.071Z,11.70
2018-03-15T08:47:18.074Z,12.20
2018-03-15T08:48:18.065Z,10.80
2018-03-15T08:49:18.062Z,12.00
2018-03-15T08:50:18.058Z,11.00
2018-03-15T08:51:18.058Z,11.40
2018-03-15T08:52:18.107Z,11.90
2018-03-15T08:53:18.050Z,11.70
2018-03-15T08:54:18.045Z,11.50
2018-03-15T08:55:18.043Z,12.30
2018-03-15T08:56:18.041Z,12.00
2018-03-15T08:57:18.067Z,10.30
2018-03-15T08:58:18.053Z,10.30
2018-03-15T08:59:18.033Z,11.70
2018-03-15T09:00:18.032Z,11.80
2018-03-15T09:01:18.030Z,10.90
2018-03-15T09:02:18.027Z,11.70
2018-03-15T09:03:18.026Z,13.10
2018-03-15T09:04:18.026Z,10.50
2018-03-15T09:05:18.024Z,11.00
2018-03-15T09:06:18.023Z,11.40
2018-03-15T09:07:18.101Z,12.20
2018-03-15T09:08:18.027Z,11.40
2018-03-15T09:09:18.024Z,10.00
2018-03-15T09:10:18.025Z,10.80
2018-03-15T09:11:18.023Z,10.80
2018-03-15T09:12:18.024Z,11.50
2018-03-15T09:13:18.023Z,11.30
2018-03-15T09:14:18.023Z,11.50
2018-03-15T09:15:18.024Z,11.50
2018-03-15T09:16:18.022Z,11.30
2018-03-15T09:17:18.023Z,11.40
2018-03-15T09:18:18.020Z,10.60
2018-03-15T09:19:18.020Z,10.70
2018-03-15T09:20:18.017Z,11.00
2018-03-15T09:21:18.018Z,11.40
2018-03-15T09:22:18.016Z,9.60
2018-03-15T09:23:18.015Z,9.20
2018-03-15T09:24:18.015Z,10.30
2018-03-15T09:25:18.013Z,9.50
2018-03-15T09:26:18.012Z,9.10
2018-03-15T09:27:18.011Z,9.70
2018-03-15T09:28:18.034Z,9.40
2018-03-15T09:29:18.008Z,10.00
2018-03-15T09:30:18.007Z,10.00
2018-03-15T09:31:18.005Z,9.70
2018-03-15T09:32:18.006Z,9.70
2018-03-15T09:33:18.003Z,9.40
2018-03-15T09:34:18.001Z,10.30
2018-03-15T09:35:18.000Z,10.50
2018-03-15T09:36:17.998Z,12.70
2018-03-15T09:37:17.997Z,12.90
2018-03-15T09:38:17.995Z,12.90
2018-03-15T09:39:17.992Z,12.20
2018-03-15T09:40:17.990Z,13.60
2018-03-15T09:41:17.989Z,12.40
2018-03-15T09:42:17.987Z,11.60
2018-03-15T09:43:17.989Z,12.30
2018-03-15T09:44:17.988Z,12.00
2018-03-15T09:45:17.983Z,12.10
2018-03-15T09:46:18.040Z,12.50
2018-03-15T09:47:17.984Z,13.70
2018-03-15T09:48:17.980Z,13.20
2018-03-15T09:49:17.979Z,13.00
2018-03-15T09:50:17.976Z,13.10
2018-03-15T09:51:17.980Z,12.70
2018-03-15T09:52:17.974Z,12.50
2018-03-15T09:53:17.974Z,12.50
2018-03-15T09:54:17.972Z,13.50
2018-03-15T09:55:17.975Z,13.00
2018-03-15T09:56:17.971Z,14.30
2018-03-15T09:57:17.971Z,13.40
2018-03-15T09:58:17.969Z,12.50
2018-03-15T09:59:17.976Z,12.40
2018-03-15T10:00:17.970Z,12.80
2018-03-15T10:01:17.971Z,13.60
2018-03-15T10:02:17.971Z,12.30
2018-03-15T10:03:17.972Z,12.60
2018-03-15T10:04:17.972Z,13.40
2018-03-15T10:05:17.973Z,12.50
2018-03-15T10:06:17.972Z,12.90
2018-03-15T10:07:17.978Z,15.60
2018-03-15T10:08:17.975Z,12.40
2018-03-15T10:09:17.977Z,13.10
2018-03-15T10:10:17.977Z,14.00
2018-03-15T10:11:17.981Z,10.10
2018-03-15T10:12:17.980Z,10.20
2018-03-15T10:13:17.985Z,10.40
2018-03-15T10:14:17.998Z,10.10
2018-03-15T10:15:17.988Z,14.70
2018-03-15T10:16:17.990Z,10.60
2018-03-15T10:17:17.992Z,10.30
2018-03-15T10:18:17.995Z,9.60
2018-03-15T10:19:17.998Z,10.50
2018-03-15T10:20:18.001Z,10.20
2018-03-15T10:21:18.004Z,11.10
2018-03-15T10:22:18.007Z,14.70
2018-03-15T10:23:18.016Z,10.90
2018-03-15T10:24:18.014Z,10.60
2018-03-15T10:25:26.392Z,12.40
2018-03-15T10:26:18.317Z,9.20
2018-03-15T10:27:18.030Z,10.70
2018-03-15T10:28:18.034Z,11.30
2018-03-15T10:29:18.038Z,10.70
2018-03-15T10:30:18.043Z,10.50
2018-03-15T10:31:18.049Z,10.30
2018-03-15T10:32:18.056Z,14.10
2018-03-15T10:33:18.061Z,10.50
2018-03-15T10:34:18.065Z,10.10
2018-03-15T10:35:18.073Z,11.20
2018-03-15T10:36:18.081Z,11.30
2018-03-15T10:37:18.100Z,10.60
2018-03-15T10:38:18.091Z,10.70
2018-03-15T10:39:18.097Z,10.80
2018-03-15T10:40:18.103Z,10.80
2018-03-15T10:41:18.110Z,10.60
2018-03-15T10:42:18.149Z,9.90
2018-03-15T10:43:18.123Z,10.10
2018-03-15T10:44:18.130Z,12.80
2018-03-15T10:45:18.140Z,10.80
2018-03-15T10:46:18.142Z,11.40
2018-03-15T10:47:18.148Z,11.80
2018-03-15T10:48:18.154Z,12.10
2018-03-15T10:49:18.161Z,10.40
2018-03-15T10:50:18.169Z,10.20
2018-03-15T10:51:18.174Z,10.90
2018-03-15T10:52:18.181Z,10.40
2018-03-15T10:53:18.608Z,10.10
2018-03-15T10:54:18.193Z,10.50
2018-03-15T10:55:18.202Z,10.90
2018-03-15T10:56:18.207Z,10.20
2018-03-15T10:57:18.214Z,10.20
2018-03-15T10:58:18.220Z,12.40
2018-03-15T10:59:18.229Z,14.10
2018-03-15T11:00:18.233Z,17.00
2018-03-15T11:01:18.239Z,14.70
2018-03-15T11:02:18.244Z,13.90
2018-03-15T11:03:18.252Z,15.50
2018-03-15T11:04:18.258Z,15.20
2018-03-15T11:05:18.262Z,19.90
2018-03-15T11:06:18.268Z,21.40
2018-03-15T11:07:18.274Z,15.30
2018-03-15T11:08:18.278Z,12.40
2018-03-15T11:09:18.283Z,11.60
2018-03-15T11:10:18.291Z,12.70
2018-03-15T11:11:18.296Z,12.70
2018-03-15T11:12:18.299Z,12.00
2018-03-15T11:13:18.304Z,12.90
2018-03-15T11:14:18.308Z,12.50
2018-03-15T11:15:18.313Z,12.30
2018-03-15T11:16:18.317Z,14.30
2018-03-15T11:17:18.322Z,12.90
2018-03-15T11:18:18.627Z,13.30
2018-03-15T11:19:18.332Z,12.50
2018-03-15T11:20:18.335Z,12.70
2018-03-15T11:21:18.339Z,13.40
2018-03-15T11:22:18.342Z,13.20
2018-03-15T11:23:18.350Z,11.40
2018-03-15T11:24:18.350Z,12.10
2018-03-15T11:25:18.353Z,16.30
2018-03-15T11:26:18.355Z,12.40
2018-03-15T11:27:18.361Z,11.40
2018-03-15T11:28:18.363Z,11.20
2018-03-15T11:29:18.367Z,11.60
2018-03-15T11:30:18.371Z,10.60
2018-03-15T11:31:18.374Z,12.10
2018-03-15T11:32:18.376Z,10.70
2018-03-15T11:33:18.378Z,12.40
2018-03-15T11:34:18.383Z,14.60
2018-03-15T11:35:18.386Z,13.60
2018-03-15T11:36:18.391Z,13.10
2018-03-15T11:37:18.391Z,11.90
2018-03-15T11:38:18.397Z,13.00
2018-03-15T11:39:18.401Z,11.80
2018-03-15T11:40:18.399Z,11.90
2018-03-15T11:41:18.403Z,11.70
2018-03-15T11:42:18.404Z,11.60
2018-03-15T11:43:18.409Z,13.00
2018-03-15T11:44:18.414Z,11.30
2018-03-15T11:45:18.417Z,12.60
2018-03-15T11:46:18.418Z,12.40
2018-03-15T11:47:18.422Z,11.90
2018-03-15T11:48:18.425Z,12.90
2018-03-15T11:49:18.429Z,13.90
2018-03-15T11:50:18.431Z,13.80
2018-03-15T11:51:18.435Z,13.10
2018-03-15T11:52:18.438Z,12.70
2018-03-15T11:53:18.440Z,12.60
2018-03-15T11:54:18.446Z,12.60
2018-03-15T11:55:18.448Z,12.40
2018-03-15T11:56:18.452Z,13.60
2018-03-15T11:57:18.456Z,11.70
2018-03-15T11:58:18.458Z,10.90
2018-03-15T11:59:18.463Z,9.80
2018-03-15T12:00:18.466Z,10.60
2018-03-15T12:01:18.471Z,9.80
2018-03-15T12:02:18.473Z,8.90
2018-03-15T12:03:18.478Z,9.90
2018-03-15T12:04:18.783Z,9.50
2018-03-15T12:05:18.486Z,9.70
2018-03-15T12:06:18.492Z,12.40
2018-03-15T12:07:18.495Z,12.80
2018-03-15T12:08:18.498Z,10.40
2018-03-15T12:09:18.503Z,9.80
2018-03-15T12:10:18.506Z,9.50
2018-03-15T12:11:18.510Z,8.00
2018-03-15T12:12:18.514Z,12.30
2018-03-15T12:13:18.517Z,22.30
2018-03-15T12:14:18.523Z,10.30
2018-03-15T12:15:18.526Z,8.50
2018-03-15T12:16:18.531Z,7.30
2018-03-15T12:17:18.535Z,8.20
2018-03-15T12:18:18.537Z,7.10
2018-03-15T12:19:18.542Z,7.40
2018-03-15T12:20:18.550Z,7.70
2018-03-15T12:21:18.552Z,8.20
2018-03-15T12:22:18.554Z,7.60
2018-03-15T12:23:18.559Z,7.50
2018-03-15T12:24:18.563Z,7.90
2018-03-15T12:25:18.567Z,7.80
2018-03-15T12:26:18.571Z,7.00
2018-03-15T12:27:18.575Z,7.10
2018-03-15T12:28:18.578Z,7.80
2018-03-15T12:29:18.584Z,7.80
2018-03-15T12:30:18.585Z,9.30
2018-03-15T12:31:18.640Z,7.80
2018-03-15T12:32:18.594Z,8.40
2018-03-15T12:33:18.598Z,8.20
2018-03-15T12:34:18.603Z,8.00
2018-03-15T12:35:18.604Z,6.60
2018-03-15T12:36:18.610Z,7.30
2018-03-15T12:37:18.615Z,7.00
2018-03-15T12:38:18.616Z,7.50
2018-03-15T12:39:18.620Z,7.00
2018-03-15T12:40:18.920Z,6.60
2018-03-15T12:41:18.629Z,6.50
2018-03-15T12:42:18.633Z,8.50
2018-03-15T12:43:18.634Z,5.70
2018-03-15T12:44:18.639Z,7.60
2018-03-15T12:45:18.641Z,6.50
2018-03-15T12:46:18.645Z,6.80
2018-03-15T12:47:18.649Z,9.90
2018-03-15T12:48:18.653Z,7.30
2018-03-15T12:49:18.656Z,6.40
2018-03-15T12:50:18.660Z,5.50
2018-03-15T12:51:18.664Z,5.70
2018-03-15T12:52:18.669Z,6.50
2018-03-15T12:53:18.668Z,5.20
2018-03-15T12:54:18.673Z,6.10
2018-03-15T12:55:18.674Z,5.90
2018-03-15T12:56:18.675Z,6.40
2018-03-15T12:57:18.687Z,5.40
2018-03-15T12:58:18.682Z,5.90
2018-03-15T12:59:18.686Z,5.90
2018-03-15T13:00:18.687Z,6.00
2018-03-15T13:01:18.690Z,5.40